createdAt,value
2018-04-17T00:00:18.850Z,6.40
2018-04-17T00:02:46.320Z,6.30
2018-04-17T00:05:13.987Z,6.30
2018-04-17T00:07:41.582Z,6.30
2018-04-17T00:10:10.435Z,6.20
2018-04-17T00:12:38.210Z,6.20
2018-04-17T00:15:06.098Z,6.20
2018-04-17T00:17:34.303Z,6.10
2018-04-17T00:20:01.811Z,6.00
2018-04-17T00:22:29.443Z,6.00
2018-04-17T00:24:56.880Z,6.00
2018-04-17T00:27:24.352Z,5.90
2018-04-17T00:29:52.031Z,5.90
2018-04-17T00:32:19.602Z,5.80
2018-04-17T00:34:47.171Z,5.80
2018-04-17T00:37:14.866Z,5.80
2018-04-17T00:39:43.306Z,5.80
2018-04-17T00:42:10.844Z,5.80
2018-04-17T00:44:38.608Z,5.80
2018-04-17T00:47:06.036Z,5.70
2018-04-17T00:49:34.411Z,5.60
2018-04-17T00:52:01.869Z,5.60
2018-04-17T00:54:30.095Z,5.60
2018-04-17T00:56:57.530Z,5.60
2018-04-17T00:59:25.034Z,5.60
2018-04-17T01:01:52.459Z,5.60
2018-04-17T01:04:19.878Z,5.70
2018-04-17T01:06:47.558Z,5.60
2018-04-17T01:09:14.987Z,5.70
2018-04-17T01:11:43.529Z,5.70
2018-04-17T01:14:10.961Z,5.60
2018-04-17T01:16:38.457Z,5.70
2018-04-17T01:19:05.910Z,5.60
2018-04-17T01:21:35.034Z,5.50
2018-04-17T01:24:03.429Z,5.50
2018-04-17T01:26:31.172Z,5.50
2018-04-17T01:29:01.651Z,5.50
2018-04-17T01:31:29.130Z,5.40
2018-04-17T01:33:56.786Z,5.40
2018-04-17T01:36:24.400Z,5.20
2018-04-17T01:38:51.874Z,5.20
2018-04-17T01:41:19.495Z,5.20
2018-04-17T01:43:47.722Z,5.10
2018-04-17T01:46:15.254Z,5.10
2018-04-17T01:48:42.709Z,5.00
2018-04-17T01:51:10.161Z,5.00
2018-04-17T01:53:37.622Z,4.90
2018-04-17T01:56:05.066Z,4.90
2018-04-17T01:58:33.282Z,4.70
2018-04-17T02:01:00.719Z,4.70
2018-04-17T02:03:28.152Z,4.70
2018-04-17T02:05:56.383Z,4.70
2018-04-17T02:08:23.810Z,4.70
2018-04-17T02:10:51.298Z,4.70
2018-04-17T02:13:18.958Z,4.80
2018-04-17T02:15:46.382Z,4.80
2018-04-17T02:18:13.996Z,4.90
2018-04-17T02:20:41.425Z,4.90
2018-04-17T02:23:10.035Z,4.90
2018-04-17T02:25:38.247Z,4.70
2018-04-17T02:28:05.966Z,4.70
2018-04-17T02:30:33.596Z,4.70
2018-04-17T02:33:01.031Z,4.60
2018-04-17T02:35:28.473Z,4.70
2018-04-17T02:37:56.732Z,4.60
2018-04-17T02:40:24.158Z,4.50
2018-04-17T02:42:51.645Z,4.60
2018-04-17T02:45:19.237Z,4.60
2018-04-17T02:47:47.745Z,4.60
2018-04-17T02:50:15.414Z,4.60
2018-04-17T02:52:42.846Z,4.60
2018-04-17T02:55:10.296Z,4.50
2018-04-17T02:57:38.510Z,4.60
2018-04-17T03:00:06.424Z,4.60
2018-04-17T03:02:34.606Z,4.50
2018-04-17T03:05:02.168Z,4.50
2018-04-17T03:07:30.371Z,4.60
2018-04-17T03:09:57.966Z,4.50
2018-04-17T03:12:26.939Z,4.50
2018-04-17T03:14:54.939Z,4.60
2018-04-17T03:17:23.051Z,4.50
2018-04-17T03:19:51.405Z,4.50
2018-04-17T03:22:19.929Z,4.60
2018-04-17T03:24:47.366Z,4.50
2018-04-17T03:27:14.853Z,4.60
2018-04-17T03:29:42.258Z,4.50
2018-04-17T03:32:10.480Z,4.40
2018-04-17T03:34:37.913Z,4.40
2018-04-17T03:37:06.075Z,4.30
2018-04-17T03:39:34.185Z,4.10
2018-04-17T03:42:02.348Z,4.10
2018-04-17T03:44:30.326Z,4.10
2018-04-17T03:46:58.511Z,4.10
2018-04-17T03:49:25.966Z,4.10
2018-04-17T03:51:54.395Z,4.00
2018-04-17T03:54:22.822Z,4.00
2018-04-17T03:56:50.230Z,3.90
2018-04-17T03:59:18.669Z,3.90
2018-04-17T04:01:46.120Z,3.90
2018-04-17T04:04:13.535Z,3.90
2018-04-17T04:06:41.229Z,3.90
2018-04-17T04:09:08.677Z,3.90
2018-04-17T04:11:36.374Z,4.00
2018-04-17T04:14:05.595Z,3.90
2018-04-17T04:16:45.981Z,3.80
2018-04-17T04:19:26.275Z,3.80
2018-04-17T04:22:05.755Z,3.90
2018-04-17T04:24:46.582Z,4.00
2018-04-17T04:27:14.042Z,4.00
2018-04-17T04:29:41.570Z,4.00
2018-04-17T04:32:08.999Z,3.90
2018-04-17T04:34:37.203Z,3.90
2018-04-17T04:37:04.943Z,3.90
2018-04-17T04:39:33.185Z,3.80
2018-04-17T04:42:00.672Z,3.80
2018-04-17T04:44:28.884Z,3.90
2018-04-17T04:46:56.341Z,3.90
2018-04-17T04:49:23.768Z,3.90
2018-04-17T04:51:51.214Z,3.80
2018-04-17T04:54:19.596Z,3.90
2018-04-17T04:56:48.843Z,4.00
2018-04-17T04:59:16.330Z,4.00
2018-04-17T05:01:43.796Z,4.00
2018-04-17T05:04:12.039Z,4.10
2018-04-17T05:06:39.663Z,4.10
2018-04-17T05:09:07.116Z,4.20
2018-04-17T05:11:35.414Z,4.40
2018-04-17T05:14:02.925Z,4.30
2018-04-17T05:16:31.871Z,4.60
2018-04-17T05:18:59.390Z,4.60
2018-04-17T05:21:27.588Z,5.00
2018-04-17T05:23:55.026Z,4.90
2018-04-17T05:26:23.486Z,5.60
2018-04-17T05:28:50.977Z,5.60
2018-04-17T05:31:18.457Z,6.00
2018-04-17T05:33:47.020Z,6.40
2018-04-17T05:36:14.481Z,6.70
2018-04-17T05:38:41.969Z,7.00
2018-04-17T05:41:10.075Z,7.20
2018-04-17T05:43:37.542Z,7.50
2018-04-17T05:46:05.755Z,8.30
2018-04-17T05:48:33.183Z,8.30
2018-04-17T05:51:01.383Z,9.10
2018-04-17T05:53:29.026Z,9.10
2018-04-17T05:55:56.694Z,9.40
2018-04-17T05:58:25.050Z,9.70
2018-04-17T06:00:53.737Z,9.80
2018-04-17T06:03:21.967Z,10.00
2018-04-17T06:05:49.429Z,10.00
2018-04-17T06:08:16.882Z,10.00
2018-04-17T06:10:44.321Z,10.20
2018-04-17T06:13:11.755Z,10.60
2018-04-17T06:15:39.981Z,10.80
2018-04-17T06:18:07.510Z,11.20
2018-04-17T06:20:35.029Z,11.20
2018-04-17T06:23:03.715Z,11.40
2018-04-17T06:25:32.103Z,11.70
2018-04-17T06:28:00.424Z,11.70
2018-04-17T06:30:27.834Z,11.70
2018-04-17T06:32:56.058Z,11.90
2018-04-17T06:35:24.083Z,11.90
2018-04-17T06:37:52.626Z,12.30
2018-04-17T06:40:20.080Z,12.30
2018-04-17T06:42:47.801Z,12.60
2018-04-17T06:45:15.583Z,12.90
2018-04-17T06:47:43.735Z,13.20
2018-04-17T06:50:11.113Z,13.20
2018-04-17T06:52:38.655Z,13.30
2018-04-17T06:55:06.475Z,13.60
2018-04-17T06:57:34.683Z,13.90
2018-04-17T07:00:02.954Z,13.90
2018-04-17T07:02:32.037Z,14.40
2018-04-17T07:05:00.258Z,14.50
2018-04-17T07:07:27.698Z,14.50
2018-04-17T07:09:55.207Z,14.50
2018-04-17T07:12:22.643Z,14.90
2018-04-17T07:14:50.352Z,15.10
2018-04-17T07:17:17.779Z,15.10
2018-04-17T07:19:45.341Z,15.60
2018-04-17T07:22:12.773Z,15.70
2018-04-17T07:24:40.670Z,15.70
2018-04-17T07:27:08.134Z,15.50
2018-04-17T07:29:35.538Z,16.00
2018-04-17T07:32:03.008Z,15.90
2018-04-17T07:34:37.558Z,15.90
2018-04-17T07:37:05.052Z,16.00
2018-04-17T07:39:33.449Z,16.20
2018-04-17T07:42:00.962Z,16.20
2018-04-17T07:44:28.833Z,16.10
2018-04-17T07:47:08.667Z,16.70
2018-04-17T07:49:36.100Z,16.80
2018-04-17T07:52:03.532Z,17.40
2018-04-17T07:54:32.046Z,18.00
2018-04-17T07:57:00.446Z,18.00
2018-04-17T07:59:28.092Z,18.00
2018-04-17T08:01:55.775Z,18.00
2018-04-17T08:04:23.595Z,18.10
2018-04-17T08:06:51.135Z,17.90
2018-04-17T08:09:23.858Z,18.50
2018-04-17T08:11:51.342Z,18.50
2018-04-17T08:14:18.818Z,18.20
2018-04-17T08:16:46.351Z,18.50
2018-04-17T08:19:14.312Z,18.50
2018-04-17T08:21:41.742Z,18.80
2018-04-17T08:24:09.344Z,19.00
2018-04-17T08:26:38.747Z,18.90
2018-04-17T08:29:06.495Z,18.30
2018-04-17T08:31:33.954Z,18.50
2018-04-17T08:34:01.388Z,18.20
2018-04-17T08:36:28.880Z,18.20
2018-04-17T08:38:56.327Z,18.30
2018-04-17T08:41:23.773Z,18.30
2018-04-17T09:53:43.035Z,18.80
2018-04-17T09:56:10.473Z,19.20
2018-04-17T09:58:38.064Z,19.40
2018-04-17T10:01:24.411Z,19.50
2018-04-17T10:03:52.623Z,19.40
2018-04-17T10:06:20.453Z,19.40
2018-04-17T10:08:49.695Z,19.30
2018-04-17T10:11:17.071Z,19.20
2018-04-17T10:13:44.797Z,19.40
2018-04-17T10:16:12.255Z,19.70
2018-04-17T10:18:39.691Z,19.80
2018-04-17T10:21:08.438Z,19.60
2018-04-17T10:23:35.871Z,19.60
2018-04-17T10:26:03.302Z,19.60
2018-04-17T10:28:31.099Z,20.20
2018-04-17T10:30:58.526Z,20.80
2018-04-17T10:33:25.998Z,20.90
2018-04-17T10:35:53.646Z,21.50
2018-04-17T10:38:21.304Z,21.70
2018-04-17T10:40:49.508Z,21.10
2018-04-17T10:43:16.965Z,21.20
2018-04-17T10:45:44.406Z,21.00
2018-04-17T10:48:11.879Z,21.00
2018-04-17T10:50:39.358Z,20.60
2018-04-17T10:53:07.000Z,21.00
2018-04-17T10:55:35.180Z,20.80
2018-04-17T10:58:02.711Z,20.80
2018-04-17T11:00:30.898Z,20.60
2018-04-17T11:02:58.797Z,20.60
2018-04-17T11:05:26.267Z,20.90
2018-04-17T11:07:53.720Z,21.20
2018-04-17T11:10:21.538Z,21.40
2018-04-17T11:12:48.936Z,21.50
2018-04-17T11:15:16.434Z,21.40
2018-04-17T11:17:44.709Z,21.10
2018-04-17T11:20:12.958Z,21.50
2018-04-17T11:22:40.419Z,21.50
2018-04-17T11:25:07.888Z,21.40
2018-04-17T11:27:35.321Z,21.20
2018-04-17T11:30:04.884Z,21.30
2018-04-17T11:32:33.567Z,21.20
2018-04-17T11:35:02.791Z,21.30
2018-04-17T11:37:31.079Z,21.40
2018-04-17T11:39:59.211Z,21.40
2018-04-17T11:42:27.475Z,21.00
2018-04-17T11:44:56.467Z,21.20
2018-04-17T11:47:23.908Z,21.20
2018-04-17T11:49:51.327Z,21.00
2018-04-17T11:52:18.755Z,21.00
2018-04-17T11:54:47.794Z,21.20
2018-04-17T11:57:15.254Z,21.20
2018-04-17T11:59:42.692Z,21.20
2018-04-17T12:02:11.013Z,21.40
2018-04-17T12:04:39.005Z,21.70
2018-04-17T12:07:06.427Z,21.50
2018-04-17T12:09:33.900Z,21.30
2018-04-17T12:12:01.507Z,21.30
2018-04-17T12:14:28.943Z,21.40
2018-04-17T12:16:57.139Z,21.00
2018-04-17T12:19:24.643Z,21.00
2018-04-17T12:21:52.057Z,20.90
2018-04-17T12:24:20.400Z,21.60
2018-04-17T12:26:48.027Z,21.60
2018-04-17T12:29:15.487Z,21.50
2018-04-17T12:31:43.268Z,21.70
2018-04-17T12:34:11.336Z,22.00
2018-04-17T12:36:38.813Z,21.80
2018-04-17T12:39:06.350Z,21.30
2018-04-17T12:41:33.762Z,21.50
2018-04-17T12:44:01.691Z,21.90
2018-04-17T12:46:29.119Z,21.90
2018-04-17T12:48:56.586Z,21.70
2018-04-17T12:51:24.265Z,21.80
2018-04-17T12:53:51.705Z,21.90
2018-04-17T12:56:19.153Z,22.10
2018-04-17T12:58:46.632Z,21.40
2018-04-17T13:01:14.066Z,20.90
2018-04-17T13:03:41.519Z,20.90
2018-04-17T13:06:09.616Z,20.20
2018-04-17T13:08:37.087Z,20.30
2018-04-17T13:11:04.554Z,20.30
2018-04-17T13:13:32.753Z,19.60
2018-04-17T13:16:01.009Z,20.10
2018-04-17T13:18:28.939Z,20.10
2018-04-17T13:20:56.370Z,20.20
2018-04-17T13:23:23.878Z,20.20
2018-04-17T13:25:51.329Z,20.00
2018-04-17T13:28:18.778Z,20.10
2018-04-17T13:30:46.214Z,20.10
2018-04-17T13:33:13.643Z,20.30
2018-04-17T13:35:41.855Z,20.40
2018-04-17T13:38:09.291Z,20.40
2018-04-17T13:40:37.389Z,20.00
2018-04-17T13:43:04.865Z,19.70
2018-04-17T13:45:32.750Z,19.40
2018-04-17T13:48:00.203Z,19.40
2018-04-17T13:50:27.633Z,19.60
2018-04-17T13:52:55.683Z,19.40
2018-04-17T13:55:23.874Z,19.40
2018-04-17T13:57:51.335Z,19.40
2018-04-17T14:00:18.766Z,19.40
2018-04-17T14:02:47.046Z,19.60
2018-04-17T14:05:14.623Z,19.60
2018-04-17T14:07:42.070Z,19.50
2018-04-17T14:10:09.542Z,19.30
2018-04-17T14:12:37.023Z,19.30
2018-04-17T14:15:04.471Z,19.40
2018-04-17T14:17:32.798Z,19.40
2018-04-17T14:20:02.556Z,19.10
2018-04-17T14:22:29.979Z,19.10
2018-04-17T14:25:02.523Z,19.20
2018-04-17T14:27:29.975Z,19.20
2018-04-17T14:29:57.406Z,19.30
2018-04-17T14:32:24.891Z,19.40
2018-04-17T14:34:52.379Z,19.30
2018-04-17T14:37:20.562Z,19.00
2018-04-17T14:39:49.025Z,19.00
2018-04-17T14:42:16.567Z,19.00
2018-04-17T14:44:44.017Z,19.00
2018-04-17T14:47:11.454Z,19.00
2018-04-17T14:49:39.654Z,19.00
2018-04-17T14:52:07.285Z,18.90
2018-04-17T14:54:35.474Z,18.90
2018-04-17T14:57:02.979Z,18.90
2018-04-17T14:59:30.447Z,18.80
2018-04-17T15:01:59.386Z,18.50
2018-04-17T15:04:26.845Z,18.50
2018-04-17T15:06:54.278Z,18.60
2018-04-17T15:09:21.758Z,18.60
2018-04-17T15:11:49.419Z,18.50
2018-04-17T15:14:16.850Z,18.60
2018-04-17T15:16:44.496Z,19.00
2018-04-17T15:19:13.201Z,18.60
2018-04-17T15:21:41.314Z,18.60
2018-04-17T15:24:08.766Z,18.70
2018-04-17T15:26:37.199Z,18.90
2018-04-17T15:29:05.416Z,18.40
2018-04-17T15:31:32.896Z,18.40
2018-04-17T15:34:00.321Z,18.50
2018-04-17T15:36:27.810Z,18.30
2018-04-17T15:38:55.237Z,18.50
2018-04-17T15:41:22.733Z,18.50
2018-04-17T15:43:50.782Z,18.50
2018-04-17T15:46:18.218Z,18.50
2018-04-17T15:48:45.691Z,18.60
2018-04-17T15:51:13.147Z,18.60
2018-04-17T15:53:41.580Z,18.40
2018-04-17T15:56:09.095Z,18.00
2018-04-17T15:58:36.524Z,18.00
2018-04-17T16:01:04.176Z,17.80
2018-04-17T16:03:32.269Z,17.80
2018-04-17T16:06:00.402Z,18.00
2018-04-17T16:08:28.643Z,17.90
2018-04-17T16:10:56.318Z,17.90
2018-04-17T16:13:23.748Z,18.10
2018-04-17T16:15:51.182Z,18.20
2018-04-17T16:18:18.914Z,18.30
2018-04-17T16:20:46.495Z,18.30
2018-04-17T16:23:14.696Z,18.00
2018-04-17T16:25:42.139Z,18.00
2018-04-17T16:28:09.574Z,17.80
2018-04-17T16:30:37.138Z,17.90
2018-04-17T16:33:05.933Z,17.70
2018-04-17T16:35:33.314Z,17.70
2018-04-17T16:38:00.997Z,17.60
2018-04-17T16:40:29.442Z,17.60
2018-04-17T16:42:57.496Z,17.70
2018-04-17T16:45:25.886Z,18.20
2018-04-17T16:47:54.102Z,18.40
2018-04-17T16:50:22.553Z,18.40
2018-04-17T16:52:50.758Z,18.70
2018-04-17T16:55:19.210Z,18.60
2018-04-17T16:57:46.714Z,18.60
2018-04-17T17:00:14.179Z,18.60
2018-04-17T17:02:41.846Z,18.50
2018-04-17T17:05:09.295Z,18.40
2018-04-17T17:07:36.809Z,18.40
2018-04-17T17:10:04.268Z,18.30
2018-04-17T17:12:31.992Z,18.20
2018-04-17T17:15:03.633Z,18.20
2018-04-17T17:17:31.080Z,18.10
2018-04-17T17:19:58.510Z,17.90
2018-04-17T17:22:25.996Z,17.80
2018-04-17T17:24:53.430Z,17.60
2018-04-17T17:27:22.086Z,17.50
2018-04-17T17:29:50.277Z,17.10
2018-04-17T17:32:17.793Z,17.10
2018-04-17T17:34:45.242Z,16.90
2018-04-17T17:37:12.681Z,16.80
2018-04-17T17:39:40.141Z,16.60
2018-04-17T17:42:08.946Z,16.50
2018-04-17T17:44:36.603Z,16.40
2018-04-17T17:47:05.245Z,16.30
2018-04-17T17:49:32.681Z,16.20
2018-04-17T17:52:01.000Z,16.10
2018-04-17T17:54:29.600Z,16.00
2018-04-17T17:56:57.555Z,16.00
2018-04-17T17:59:26.056Z,15.90
2018-04-17T18:01:53.519Z,15.90
2018-04-17T18:04:21.181Z,15.80
2018-04-17T18:06:49.081Z,15.70
2018-04-17T18:09:17.282Z,15.60
2018-04-17T18:11:44.814Z,15.60
2018-04-17T18:14:14.410Z,15.50
2018-04-17T18:16:41.862Z,15.50
2018-04-17T18:19:09.322Z,15.50
2018-04-17T18:24:10.030Z,15.40
2018-04-17T18:26:37.675Z,15.30
2018-04-17T18:29:05.037Z,15.30
2018-04-17T18:31:32.490Z,15.20
2018-04-17T18:34:00.711Z,15.20
2018-04-17T18:36:29.069Z,15.20
2018-04-17T18:38:59.062Z,15.20
2018-04-17T18:44:06.601Z,15.10
2018-04-17T18:46:34.874Z,15.00
2018-04-17T18:49:02.320Z,15.00
2018-04-17T18:51:30.254Z,15.00
2018-04-17T18:54:05.198Z,15.00
2018-04-17T18:56:33.428Z,14.90
2018-04-17T18:59:00.911Z,14.90
2018-04-17T19:01:29.270Z,14.90
2018-04-17T19:03:56.951Z,14.90
2018-04-17T19:06:24.426Z,14.80
2018-04-17T19:08:52.648Z,14.70
2018-04-17T19:11:20.762Z,14.70
2018-04-17T19:13:48.941Z,14.70
2018-04-17T19:16:16.354Z,14.60
2018-04-17T19:18:45.413Z,14.60
2018-04-17T19:21:12.876Z,14.50
2018-04-17T19:23:40.308Z,14.50
2018-04-17T19:26:08.884Z,14.50
2018-04-17T19:28:36.812Z,14.50
2018-04-17T19:31:04.236Z,14.50
2018-04-17T19:33:31.781Z,14.40
2018-04-17T19:35:59.971Z,14.40
2018-04-17T19:38:27.438Z,14.40
2018-04-17T19:40:54.937Z,14.30
2018-04-17T19:43:23.998Z,14.20
2018-04-17T19:45:51.595Z,14.10
2018-04-17T19:48:19.365Z,14.00
2018-04-17T19:50:46.792Z,14.00
2018-04-17T19:53:14.262Z,13.90
2018-04-17T19:55:41.698Z,13.80
2018-04-17T19:58:09.136Z,13.60
2018-04-17T20:00:36.559Z,13.60
2018-04-17T20:03:04.249Z,13.60
2018-04-17T20:05:32.434Z,13.50
2018-04-17T20:07:59.915Z,13.50
2018-04-17T20:10:27.351Z,13.40
2018-04-17T20:12:55.731Z,13.30
2018-04-17T20:15:23.246Z,13.30
2018-04-17T20:17:51.516Z,13.20
2018-04-17T20:20:18.947Z,13.20
2018-04-17T20:22:46.411Z,13.30
2018-04-17T20:25:13.898Z,13.20
2018-04-17T20:27:41.337Z,13.20
2018-04-17T20:30:08.782Z,13.20
2018-04-17T20:32:36.873Z,13.10
2018-04-17T20:35:04.309Z,13.10
2018-04-17T20:37:31.971Z,13.00
2018-04-17T20:39:59.423Z,13.00
2018-04-17T20:42:26.902Z,13.00
2018-04-17T20:44:54.310Z,12.90
2018-04-17T20:47:21.726Z,12.90
2018-04-17T20:49:49.994Z,12.70
2018-04-17T20:52:17.430Z,12.70
2018-04-17T20:54:44.871Z,12.60
2018-04-17T20:57:13.187Z,12.50
2018-04-17T20:59:40.641Z,12.50
2018-04-17T21:02:08.580Z,12.40
2018-04-17T21:04:36.790Z,12.30
2018-04-17T21:07:04.436Z,12.30
2018-04-17T21:09:31.855Z,12.30
2018-04-17T21:11:59.290Z,12.20
2018-04-17T21:14:27.592Z,12.10
2018-04-17T21:16:55.094Z,12.10
2018-04-17T21:19:22.580Z,12.10
2018-04-17T21:21:50.203Z,12.00
2018-04-17T21:24:17.914Z,11.90
2018-04-17T21:26:46.097Z,11.80
2018-04-17T21:29:14.306Z,11.70
2018-04-17T21:31:41.734Z,11.70
2018-04-17T21:34:09.214Z,11.60
2018-04-17T21:36:36.659Z,11.70
2018-04-17T21:39:04.106Z,11.70
2018-04-17T21:41:32.366Z,11.70
2018-04-17T21:43:59.804Z,11.70
2018-04-17T21:46:27.235Z,11.80
2018-04-17T21:48:54.995Z,11.70
2018-04-17T21:51:22.421Z,11.70
2018-04-17T21:53:49.849Z,11.60
2018-04-17T21:56:18.807Z,11.50
2018-04-17T21:58:46.439Z,11.50
2018-04-17T22:01:13.898Z,11.50
2018-04-17T22:03:41.363Z,11.50
2018-04-17T22:06:08.835Z,11.50
2018-04-17T22:08:36.545Z,11.40
2018-04-17T22:11:05.220Z,11.20
2018-04-17T22:13:34.691Z,11.20
2018-04-17T22:16:02.143Z,11.20
2018-04-17T22:18:29.599Z,11.20
2018-04-17T22:20:58.094Z,11.10
2018-04-17T22:23:25.553Z,11.10
2018-04-17T22:25:52.991Z,11.00
2018-04-17T22:28:20.433Z,11.00
2018-04-17T22:30:47.858Z,10.90
2018-04-17T22:33:15.291Z,10.90
2018-04-17T22:35:42.722Z,10.90
2018-04-17T22:38:10.198Z,10.80
2018-04-17T22:40:37.647Z,10.80
2018-04-17T22:43:05.226Z,10.70
2018-04-17T22:45:32.673Z,10.70
2018-04-17T22:48:00.334Z,10.70
2018-04-17T22:50:27.785Z,10.60
2018-04-17T22:52:55.236Z,10.60
2018-04-17T22:55:22.690Z,10.60
2018-04-17T22:57:50.119Z,10.60
2018-04-17T23:00:17.578Z,10.60
2018-04-17T23:02:45.003Z,10.70
2018-04-17T23:05:12.430Z,10.60
2018-04-17T23:07:40.510Z,10.60
2018-04-17T23:10:07.943Z,10.60
2018-04-17T23:12:36.363Z,10.60
2018-04-17T23:15:03.882Z,10.60
2018-04-17T23:17:31.475Z,10.60
2018-04-17T23:19:58.903Z,10.60
2018-04-17T23:22:26.343Z,10.60
2018-04-17T23:24:54.720Z,10.50
2018-04-17T23:27:22.199Z,10.50
2018-04-17T23:29:49.628Z,10.40
2018-04-17T23:32:17.118Z,10.30
2018-04-17T23:34:45.314Z,10.30
2018-04-17T23:37:12.761Z,10.30
2018-04-17T23:39:40.207Z,10.30
2018-04-17T23:42:08.161Z,10.30
2018-04-17T23:44:35.654Z,10.20
2018-04-17T23:47:03.173Z,10.20
2018-04-17T23:49:30.595Z,10.20
2018-04-17T23:51:58.922Z,10.10
2018-04-17T23:54:26.400Z,10.10
2018-04-17T23:56:55.783Z,10.10
2018-04-17T23:59:23.227Z,10.00
